createdAt,value
2022-11-24T00:09:35.317Z,99088.53
2022-11-24T00:19:37.028Z,99095.34
2022-11-24T00:29:39.500Z,99101.28
2022-11-24T00:39:41.187Z,99115.81
2022-11-24T00:49:44.827Z,99127.75
2022-11-24T00:59:47.903Z,99132.03
2022-11-24T01:09:52.577Z,99130.31
2022-11-24T01:19:54.285Z,99132.03
2022-11-24T01:29:55.922Z,99135.44
2022-11-24T01:39:57.611Z,99135.44
2022-11-24T01:50:01.946Z,99143.97
2022-11-24T02:00:11.944Z,99154.19
2022-11-24T02:10:17.427Z,99149.06
2022-11-24T02:20:19.281Z,99148.25
2022-11-24T02:30:21.202Z,99167.84
2022-11-24T02:40:27.050Z,99152.47
2022-11-24T02:50:28.917Z,99152.47
2022-11-24T03:00:30.756Z,99156.72
2022-11-24T03:10:37.554Z,99155.00
2022-11-24T03:20:39.272Z,99174.59
2022-11-24T03:30:41.017Z,99176.25
2022-11-24T03:40:42.755Z,99186.47
2022-11-24T03:50:53.251Z,99200.09
2022-11-24T04:00:56.195Z,99205.19
2022-11-24T04:10:57.917Z,99194.97
2022-11-24T04:21:01.738Z,99210.25
2022-11-24T04:31:03.857Z,99223.00
2022-11-24T04:41:05.911Z,99232.34
2022-11-24T04:51:07.835Z,99250.25
2022-11-24T05:01:09.956Z,99262.19
2022-11-24T05:11:11.748Z,99284.19
2022-11-24T05:21:13.378Z,99296.84
2022-11-24T05:31:15.091Z,99301.97
2022-11-24T05:41:16.732Z,99304.56
2022-11-24T05:51:31.068Z,99320.78
2022-11-24T06:01:37.890Z,99322.53
2022-11-24T06:11:40.603Z,99337.88
2022-11-24T06:21:42.242Z,99344.72
2022-11-24T06:31:43.937Z,99360.19
2022-11-24T06:41:46.656Z,99375.63
2022-11-24T06:51:50.606Z,99387.63
2022-11-24T07:01:52.870Z,99391.94
2022-11-24T07:11:55.864Z,99413.34
2022-11-24T07:21:59.593Z,99403.88
2022-11-24T07:32:05.394Z,99438.94
2022-11-24T07:42:08.590Z,99448.38
2022-11-24T07:52:11.433Z,99453.50
2022-11-24T08:02:13.459Z,99450.19
2022-11-24T08:12:17.015Z,99454.47
2022-11-24T08:22:18.599Z,99476.72
2022-11-24T08:32:22.403Z,99478.38
2022-11-24T08:42:25.295Z,99483.56
2022-11-24T08:52:26.946Z,99500.63
2022-11-24T09:02:28.700Z,99488.72
2022-11-24T09:12:34.804Z,99512.72
2022-11-24T09:22:38.262Z,99517.00
2022-11-24T09:32:41.514Z,99517.94
2022-11-24T09:43:17.601Z,99495.75
2022-11-24T09:53:26.449Z,99516.16
2022-11-24T10:03:39.939Z,99507.66
2022-11-24T10:13:56.784Z,99518.84
2022-11-24T10:24:30.248Z,99520.50
2022-11-24T10:34:44.871Z,99517.91
2022-11-24T10:44:46.881Z,99528.22
2022-11-24T10:55:00.224Z,99540.19
2022-11-24T11:05:31.720Z,99569.28
2022-11-24T11:15:37.706Z,99563.25
2022-11-24T11:25:43.987Z,99579.50
2022-11-24T11:35:46.148Z,99577.78
2022-11-24T11:46:13.384Z,99594.91
2022-11-24T11:56:27.187Z,99579.47
2022-11-24T12:06:31.737Z,99606.53
2022-11-24T12:16:54.980Z,99591.91
2022-11-24T12:27:25.317Z,99573.75
2022-11-24T12:37:39.142Z,99594.41
2022-11-24T12:48:04.497Z,99586.44
2022-11-24T12:58:22.876Z,99595.41
2022-11-24T13:08:29.575Z,99598.59
2022-11-24T13:19:22.972Z,99608.38
2022-11-24T13:29:25.621Z,99605.06
2022-11-24T13:39:50.483Z,99623.09
2022-11-24T13:49:55.637Z,99641.06
2022-11-24T14:00:04.963Z,99629.06
2022-11-24T14:10:39.122Z,99645.38
2022-11-24T14:20:41.103Z,99647.88
2022-11-24T14:31:07.579Z,99661.69
2022-11-24T14:41:28.468Z,99658.25
2022-11-24T14:51:43.509Z,99675.34
2022-11-24T15:01:48.939Z,99706.16
2022-11-24T15:11:55.513Z,99724.00
2022-11-24T15:21:57.097Z,99727.38
2022-11-24T15:31:58.809Z,99714.47
2022-11-24T15:42:05.025Z,99741.84
2022-11-24T15:52:07.298Z,99741.72
2022-11-24T16:02:09.791Z,99765.56
2022-11-24T16:12:12.629Z,99786.00
2022-11-24T16:22:14.250Z,99778.22
2022-11-24T16:32:26.574Z,99773.00
2022-11-24T16:42:28.842Z,99793.44
2022-11-24T16:52:34.060Z,99799.41
2022-11-24T17:02:36.399Z,99803.63
2022-11-24T17:12:38.587Z,99804.28
2022-11-24T17:22:40.574Z,99822.09
2022-11-24T17:32:42.297Z,99832.25
2022-11-24T17:42:45.979Z,99823.53
2022-11-24T17:52:48.188Z,99843.97
2022-11-24T18:02:50.168Z,99861.78
2022-11-24T18:12:52.055Z,99871.06
2022-11-24T18:23:09.047Z,99872.59
2022-11-24T18:33:12.095Z,99882.66
2022-11-24T18:43:16.986Z,99884.25
2022-11-24T18:53:25.555Z,99907.25
2022-11-24T19:03:27.328Z,99922.66
2022-11-24T19:13:33.494Z,99929.09
2022-11-24T19:23:35.866Z,99918.31
2022-11-24T19:33:38.406Z,99943.09
2022-11-24T19:43:42.326Z,99969.53
2022-11-24T19:53:47.490Z,99977.88
2022-11-24T20:04:02.425Z,99992.28
2022-11-24T20:14:06.809Z,100014.44
2022-11-24T20:24:16.712Z,100037.34
2022-11-24T20:34:20.769Z,100042.59
2022-11-24T20:44:26.886Z,100061.97
2022-11-24T20:54:30.755Z,100055.06
2022-11-24T21:04:36.114Z,100065.44
2022-11-24T21:14:42.060Z,100066.00
2022-11-24T21:24:43.743Z,100072.81
2022-11-24T21:34:46.119Z,100083.38
2022-11-24T21:44:50.657Z,100082.28
2022-11-24T21:54:52.535Z,100087.09
2022-11-24T22:04:56.471Z,100090.16
2022-11-24T22:15:00.530Z,100105.00
2022-11-24T22:25:03.157Z,100112.91
2022-11-24T22:35:06.402Z,100107.19
2022-11-24T22:45:09.713Z,100120.25
2022-11-24T22:55:12.350Z,100129.88
2022-11-24T23:05:20.694Z,100147.84
2022-11-24T23:15:22.614Z,100135.56
2022-11-24T23:25:26.405Z,100149.34
2022-11-24T23:35:28.106Z,100148.78
2022-11-24T23:45:29.815Z,100171.78
2022-11-24T23:55:31.463Z,100169.00
